createdAt,value
2022-09-30T00:01:45.568Z,7.80
2022-09-30T00:04:22.497Z,3.92
2022-09-30T00:06:49.335Z,2.88
2022-09-30T00:09:16.325Z,3.92
2022-09-30T00:11:43.059Z,5.28
2022-09-30T00:14:13.792Z,5.30
2022-09-30T00:16:40.019Z,3.55
2022-09-30T00:19:06.361Z,11.27
2022-09-30T00:21:35.546Z,3.45
2022-09-30T00:24:02.423Z,6.25
2022-09-30T00:26:29.238Z,6.82
2022-09-30T00:28:57.767Z,5.10
2022-09-30T00:31:25.419Z,3.28
2022-09-30T00:34:06.874Z,3.60
2022-09-30T00:36:52.409Z,6.43
2022-09-30T00:39:20.718Z,8.32
2022-09-30T00:41:48.218Z,3.70
2022-09-30T00:44:32.991Z,3.72
2022-09-30T00:46:59.428Z,3.88
2022-09-30T00:49:25.803Z,3.25
2022-09-30T00:51:54.391Z,3.92
2022-09-30T00:54:29.531Z,5.95
2022-09-30T00:56:57.525Z,3.30
2022-09-30T00:59:34.866Z,2.45
2022-09-30T01:02:01.493Z,2.22
2022-09-30T01:04:29.410Z,2.60
2022-09-30T01:06:55.721Z,4.13
2022-09-30T01:09:22.070Z,3.22
2022-09-30T01:11:48.610Z,8.93
2022-09-30T01:14:19.754Z,3.20
2022-09-30T01:17:05.176Z,4.20
2022-09-30T01:19:46.563Z,4.10
2022-09-30T01:22:26.872Z,2.05
2022-09-30T01:25:02.071Z,8.52
2022-09-30T01:27:43.137Z,3.45
2022-09-30T01:30:09.644Z,3.83
2022-09-30T01:32:45.113Z,4.80
2022-09-30T01:35:18.858Z,5.28
2022-09-30T01:37:57.054Z,1.73
2022-09-30T01:40:38.159Z,1.73
2022-09-30T01:43:04.367Z,6.25
2022-09-30T01:45:35.203Z,2.40
2022-09-30T01:48:09.118Z,9.27
2022-09-30T01:50:38.082Z,2.40
2022-09-30T01:53:08.442Z,2.33
2022-09-30T01:55:52.474Z,5.78
2022-09-30T01:58:22.286Z,4.28
2022-09-30T02:00:50.538Z,3.73
2022-09-30T02:03:31.154Z,2.35
2022-09-30T02:06:02.280Z,3.78
2022-09-30T02:08:34.562Z,2.72
2022-09-30T02:11:09.622Z,6.45
2022-09-30T02:13:39.378Z,6.05
2022-09-30T02:16:12.759Z,3.00
2022-09-30T02:18:42.122Z,3.30
2022-09-30T02:21:09.042Z,2.22
2022-09-30T02:23:38.670Z,3.58
2022-09-30T02:26:20.024Z,1.73
2022-09-30T02:28:49.421Z,3.28
2022-09-30T02:31:18.007Z,2.28
2022-09-30T02:33:49.470Z,5.82
2022-09-30T02:36:16.211Z,2.30
2022-09-30T02:38:44.839Z,1.58
2022-09-30T02:41:23.663Z,3.13
2022-09-30T02:43:50.278Z,4.47
2022-09-30T02:46:35.512Z,6.95
2022-09-30T02:49:08.366Z,1.95
2022-09-30T02:51:45.312Z,2.20
2022-09-30T02:54:19.840Z,3.30
2022-09-30T02:56:50.111Z,6.43
2022-09-30T02:59:16.407Z,7.82
2022-09-30T03:01:43.275Z,3.00
2022-09-30T03:04:11.372Z,1.95
2022-09-30T03:06:38.548Z,8.88
2022-09-30T03:09:04.891Z,6.03
2022-09-30T03:11:32.030Z,2.08
2022-09-30T03:14:07.210Z,4.43
2022-09-30T03:16:40.174Z,2.60
2022-09-30T03:19:15.059Z,3.20
2022-09-30T03:21:47.044Z,7.68
2022-09-30T03:24:25.089Z,3.45
2022-09-30T03:27:00.714Z,2.00
2022-09-30T03:29:43.181Z,2.40
2022-09-30T03:32:29.713Z,4.97
2022-09-30T03:35:03.265Z,4.50
2022-09-30T03:37:30.110Z,2.33
2022-09-30T03:40:02.608Z,1.80
2022-09-30T03:42:32.839Z,4.10
2022-09-30T03:45:17.542Z,9.75
2022-09-30T03:47:45.466Z,6.88
2022-09-30T03:50:14.346Z,15.13
2022-09-30T03:52:40.618Z,1.92
2022-09-30T03:55:08.519Z,2.20
2022-09-30T03:57:34.818Z,2.00
2022-09-30T04:00:01.678Z,4.63
2022-09-30T04:02:28.188Z,4.75
2022-09-30T04:04:54.446Z,3.15
2022-09-30T04:07:20.834Z,2.83
2022-09-30T04:09:47.122Z,4.00
2022-09-30T04:12:13.432Z,1.90
2022-09-30T04:14:39.642Z,3.97
2022-09-30T04:17:06.054Z,3.13
2022-09-30T04:19:32.292Z,3.75
2022-09-30T04:21:58.825Z,3.50
2022-09-30T04:24:25.296Z,3.13
2022-09-30T04:26:51.860Z,7.50
2022-09-30T04:29:18.209Z,3.75
2022-09-30T04:31:44.557Z,4.70
2022-09-30T04:34:11.742Z,2.10
2022-09-30T04:36:38.253Z,2.03
2022-09-30T04:39:04.639Z,4.35
2022-09-30T04:41:32.164Z,6.80
2022-09-30T04:43:58.450Z,2.13
2022-09-30T04:46:24.695Z,12.52
2022-09-30T04:48:51.008Z,1.70
2022-09-30T04:51:18.787Z,1.90
2022-09-30T04:53:45.411Z,3.95
2022-09-30T04:56:11.993Z,3.15
2022-09-30T04:58:38.395Z,2.65
2022-09-30T05:01:05.781Z,4.07
2022-09-30T05:03:32.310Z,3.15
2022-09-30T05:05:58.600Z,4.32
2022-09-30T05:08:24.876Z,6.93
2022-09-30T05:10:57.815Z,8.93
2022-09-30T05:13:25.211Z,8.35
2022-09-30T05:15:51.881Z,5.55
2022-09-30T05:18:21.519Z,5.68
2022-09-30T05:20:51.186Z,5.25
2022-09-30T05:23:18.212Z,8.27
2022-09-30T05:25:44.986Z,3.05
2022-09-30T05:28:12.243Z,7.93
2022-09-30T05:30:38.808Z,5.32
2022-09-30T05:33:05.346Z,3.53
2022-09-30T05:35:32.110Z,5.13
2022-09-30T05:37:59.735Z,3.20
2022-09-30T05:40:25.976Z,6.82
2022-09-30T05:42:52.231Z,7.93
2022-09-30T05:45:18.523Z,2.55
2022-09-30T05:47:50.618Z,2.50
2022-09-30T05:50:16.870Z,12.38
2022-09-30T05:52:43.124Z,13.68
2022-09-30T05:55:09.371Z,6.47
2022-09-30T05:57:36.278Z,6.63
2022-09-30T06:00:02.614Z,5.05
2022-09-30T06:02:28.948Z,7.95
2022-09-30T06:04:55.334Z,8.63
2022-09-30T06:07:21.557Z,12.00
2022-09-30T06:09:47.926Z,9.38
2022-09-30T06:12:16.722Z,19.50
2022-09-30T06:14:42.951Z,8.77
2022-09-30T06:17:09.181Z,10.23
2022-09-30T06:19:35.440Z,10.98
2022-09-30T06:22:01.770Z,12.77
2022-09-30T06:24:28.041Z,17.67
2022-09-30T06:26:54.266Z,12.48
2022-09-30T06:29:20.588Z,12.25
2022-09-30T06:31:46.924Z,10.25
2022-09-30T06:34:13.700Z,7.47
2022-09-30T06:36:39.926Z,17.00
2022-09-30T06:39:09.110Z,16.33
2022-09-30T06:41:42.387Z,19.85
2022-09-30T06:44:08.859Z,15.23
2022-09-30T06:46:38.623Z,17.30
2022-09-30T06:49:13.678Z,13.50
2022-09-30T06:51:40.098Z,13.68
2022-09-30T06:54:06.411Z,11.80
2022-09-30T06:56:32.665Z,16.08
2022-09-30T06:58:58.955Z,18.15
2022-09-30T07:01:25.301Z,17.02
2022-09-30T07:03:58.108Z,27.42
2022-09-30T07:06:25.968Z,31.58
2022-09-30T07:08:53.527Z,22.83
2022-09-30T07:11:19.809Z,22.52
2022-09-30T07:13:49.268Z,18.60
2022-09-30T07:16:19.404Z,21.38
2022-09-30T07:18:45.932Z,22.58
2022-09-30T07:21:13.721Z,24.00
2022-09-30T07:23:47.630Z,20.92
2022-09-30T07:26:18.229Z,22.67
2022-09-30T07:28:45.133Z,22.42
2022-09-30T07:31:31.936Z,25.50
2022-09-30T07:33:59.517Z,25.15
2022-09-30T07:36:32.756Z,35.38
2022-09-30T07:39:00.224Z,29.20
2022-09-30T07:41:28.945Z,39.58
2022-09-30T07:43:56.546Z,31.67
2022-09-30T07:46:24.460Z,35.13
2022-09-30T07:48:52.322Z,33.35
2022-09-30T07:51:20.962Z,48.70
2022-09-30T07:53:49.480Z,35.85
2022-09-30T07:56:16.152Z,41.53
2022-09-30T07:58:42.727Z,36.97
2022-09-30T08:01:09.160Z,39.28
2022-09-30T08:03:39.071Z,36.53
2022-09-30T08:06:06.477Z,42.33
2022-09-30T08:08:32.728Z,34.47
2022-09-30T08:11:00.073Z,36.58
2022-09-30T08:13:26.335Z,31.42
2022-09-30T08:15:52.577Z,28.02
2022-09-30T08:18:18.801Z,31.42
2022-09-30T08:20:45.023Z,34.28
2022-09-30T08:23:11.253Z,29.23
2022-09-30T08:25:37.485Z,26.67
2022-09-30T08:28:03.839Z,29.58
2022-09-30T08:30:30.100Z,23.83
2022-09-30T08:32:57.521Z,29.55
2022-09-30T08:35:23.725Z,25.75
2022-09-30T08:37:51.559Z,24.50
2022-09-30T08:40:26.267Z,19.10
2022-09-30T08:43:18.679Z,20.35
2022-09-30T08:46:00.247Z,17.58
2022-09-30T08:48:37.061Z,20.55
2022-09-30T08:51:27.608Z,18.77
2022-09-30T08:53:54.767Z,16.08
2022-09-30T08:56:28.028Z,22.33
2022-09-30T08:58:56.971Z,17.35
2022-09-30T09:01:32.373Z,20.15
2022-09-30T09:03:59.066Z,19.00
2022-09-30T09:06:28.071Z,20.33
2022-09-30T09:09:10.170Z,20.85
2022-09-30T09:11:47.878Z,17.77
2022-09-30T09:14:33.159Z,21.55
2022-09-30T09:17:20.960Z,23.73
2022-09-30T09:20:02.295Z,19.95
2022-09-30T09:22:28.930Z,18.25
2022-09-30T09:24:55.736Z,18.13
2022-09-30T09:27:40.282Z,15.23
2022-09-30T09:30:08.398Z,16.17
2022-09-30T09:32:35.455Z,18.83
2022-09-30T09:35:06.616Z,14.52
2022-09-30T09:38:05.102Z,16.05
2022-09-30T09:40:39.649Z,24.08
2022-09-30T09:43:19.125Z,19.33
2022-09-30T09:45:55.521Z,20.80
2022-09-30T09:48:21.795Z,14.35
2022-09-30T09:51:12.795Z,14.57
2022-09-30T09:53:41.854Z,17.92
2022-09-30T09:56:18.847Z,16.88
2022-09-30T09:59:04.944Z,12.43
2022-09-30T10:01:34.622Z,14.02
2022-09-30T10:04:27.563Z,10.43
2022-09-30T10:06:55.293Z,13.50
2022-09-30T10:09:22.238Z,10.85
2022-09-30T10:11:48.472Z,11.80
2022-09-30T10:14:21.699Z,9.48
2022-09-30T10:16:48.605Z,11.48
2022-09-30T10:19:20.650Z,17.75
2022-09-30T10:21:46.880Z,8.23
2022-09-30T10:24:39.297Z,9.70
2022-09-30T10:27:31.814Z,12.27
2022-09-30T10:29:58.461Z,9.38
2022-09-30T10:32:25.268Z,8.15
2022-09-30T10:34:55.005Z,10.40
2022-09-30T10:37:22.592Z,8.73
2022-09-30T10:39:56.195Z,10.50
2022-09-30T10:42:26.594Z,11.07
2022-09-30T10:44:55.763Z,7.05
2022-09-30T10:47:26.168Z,8.43
2022-09-30T10:49:56.059Z,9.82
2022-09-30T10:52:24.801Z,5.65
2022-09-30T10:54:53.686Z,5.63
2022-09-30T10:57:31.459Z,9.20
2022-09-30T11:00:09.160Z,8.00
2022-09-30T11:02:38.328Z,3.92
2022-09-30T11:05:07.484Z,7.07
2022-09-30T11:07:39.380Z,4.22
2022-09-30T11:10:08.564Z,3.55
2022-09-30T11:12:40.466Z,12.63
2022-09-30T11:15:13.492Z,7.90
2022-09-30T11:17:43.047Z,3.97
2022-09-30T11:20:18.828Z,5.70
2022-09-30T11:23:05.354Z,4.28
2022-09-30T11:25:50.078Z,4.20
2022-09-30T11:28:22.183Z,4.80
2022-09-30T11:30:49.324Z,5.10
2022-09-30T11:33:15.532Z,2.88
2022-09-30T11:35:53.725Z,5.07
2022-09-30T11:38:22.684Z,3.90
2022-09-30T11:41:09.578Z,3.35
2022-09-30T11:43:53.624Z,3.10
2022-09-30T11:46:44.257Z,1.80
2022-09-30T11:49:29.040Z,1.85
2022-09-30T11:52:14.064Z,1.13
2022-09-30T11:54:51.401Z,2.30
2022-09-30T11:57:37.926Z,2.63
2022-09-30T12:00:14.215Z,2.67
2022-09-30T12:02:43.777Z,2.33
2022-09-30T12:05:12.464Z,2.15
2022-09-30T12:07:42.167Z,1.75
2022-09-30T12:10:21.319Z,2.25
2022-09-30T12:12:49.545Z,2.03
2022-09-30T12:15:18.473Z,3.72
2022-09-30T12:17:48.392Z,3.25
2022-09-30T12:20:17.481Z,1.77
2022-09-30T12:22:47.771Z,5.95
2022-09-30T12:25:18.916Z,2.45
2022-09-30T12:28:29.947Z,3.50
2022-09-30T12:30:59.640Z,8.15
2022-09-30T12:33:28.772Z,2.17
2022-09-30T12:36:06.663Z,3.93
2022-09-30T12:38:32.868Z,4.07
2022-09-30T12:41:17.290Z,7.60
2022-09-30T12:44:00.781Z,2.70
2022-09-30T12:46:45.908Z,4.25
2022-09-30T12:49:14.914Z,4.28
2022-09-30T12:51:45.035Z,5.63
2022-09-30T12:56:41.886Z,2.47
2022-09-30T12:59:09.826Z,4.32
2022-09-30T13:01:37.278Z,2.80
2022-09-30T13:04:03.507Z,3.17
2022-09-30T13:06:44.821Z,5.55
2022-09-30T13:09:11.019Z,5.13
2022-09-30T13:11:44.108Z,3.53
2022-09-30T13:14:25.980Z,4.50
2022-09-30T13:17:07.836Z,4.13
2022-09-30T13:19:46.001Z,9.82
2022-09-30T13:22:17.970Z,4.07
2022-09-30T13:25:00.421Z,3.83
2022-09-30T13:27:44.799Z,3.28
2022-09-30T13:30:16.992Z,11.52
2022-09-30T13:32:45.809Z,4.35
2022-09-30T13:35:30.561Z,5.32
2022-09-30T13:38:11.883Z,7.88
2022-09-30T13:41:04.163Z,5.68
2022-09-30T13:43:34.158Z,5.35
2022-09-30T13:46:06.138Z,6.28
2022-09-30T13:48:34.103Z,7.40
2022-09-30T13:51:03.567Z,6.05
2022-09-30T13:53:51.171Z,8.87
2022-09-30T13:56:26.098Z,7.53
2022-09-30T13:59:12.011Z,6.45
2022-09-30T14:01:42.118Z,5.85
2022-09-30T14:04:16.017Z,10.40
2022-09-30T14:06:46.135Z,7.55
2022-09-30T14:09:27.673Z,10.23
2022-09-30T14:12:00.710Z,5.60
2022-09-30T14:14:45.943Z,5.15
2022-09-30T14:17:15.280Z,11.35
2022-09-30T14:19:42.284Z,4.28
2022-09-30T14:22:10.213Z,3.10
2022-09-30T14:24:38.195Z,5.68
2022-09-30T14:27:22.747Z,6.20
2022-09-30T14:29:51.760Z,4.50
2022-09-30T14:32:25.957Z,4.70
2022-09-30T14:34:52.916Z,3.28
2022-09-30T14:37:34.411Z,3.53
2022-09-30T14:40:01.271Z,6.13
2022-09-30T14:42:31.017Z,10.45
2022-09-30T14:45:04.324Z,4.55
2022-09-30T14:47:34.711Z,4.72
2022-09-30T14:52:39.123Z,3.53
2022-09-30T14:55:17.675Z,3.05
2022-09-30T14:57:44.630Z,7.10
2022-09-30T15:00:40.198Z,3.58
2022-09-30T15:03:10.880Z,4.90
2022-09-30T15:05:37.119Z,3.03
2022-09-30T15:08:03.424Z,10.05
2022-09-30T15:10:31.422Z,8.10
2022-09-30T15:12:57.656Z,4.93
2022-09-30T15:15:23.967Z,8.07
2022-09-30T15:17:51.933Z,5.88
2022-09-30T15:20:32.453Z,5.70
2022-09-30T15:23:03.209Z,8.45
2022-09-30T15:25:30.215Z,9.10
2022-09-30T15:27:56.530Z,4.30
2022-09-30T15:30:29.038Z,14.80
2022-09-30T15:33:02.197Z,9.40
2022-09-30T15:35:29.118Z,5.72
2022-09-30T15:38:06.023Z,6.75
2022-09-30T15:40:49.369Z,8.40
2022-09-30T15:43:16.862Z,4.03
2022-09-30T15:45:44.432Z,8.25
2022-09-30T15:48:13.475Z,5.20
2022-09-30T15:50:44.015Z,5.05
2022-09-30T15:53:20.166Z,4.75
2022-09-30T15:55:51.446Z,7.18
2022-09-30T15:58:26.667Z,5.65
2022-09-30T16:00:54.583Z,4.85
2022-09-30T16:03:23.776Z,4.82
2022-09-30T16:05:53.871Z,7.78
2022-09-30T16:08:22.883Z,7.13
2022-09-30T16:10:53.542Z,6.85
2022-09-30T16:13:25.099Z,7.32
2022-09-30T16:15:52.779Z,5.63
2022-09-30T16:18:23.952Z,5.70
2022-09-30T16:20:57.682Z,13.18
2022-09-30T16:23:31.328Z,5.85
2022-09-30T16:26:12.572Z,9.48
2022-09-30T16:28:38.937Z,4.38
2022-09-30T16:31:07.111Z,9.90
2022-09-30T16:33:34.844Z,5.55
2022-09-30T16:36:01.187Z,7.75
2022-09-30T16:38:27.426Z,6.70
2022-09-30T16:40:53.647Z,5.00
2022-09-30T16:43:19.957Z,11.00
2022-09-30T16:45:46.270Z,7.18
2022-09-30T16:48:16.561Z,10.50
2022-09-30T16:50:48.806Z,7.20
2022-09-30T16:53:15.022Z,7.60
2022-09-30T16:55:41.350Z,7.35
2022-09-30T16:58:10.795Z,7.20
2022-09-30T17:00:37.077Z,4.93
2022-09-30T17:03:03.394Z,10.07
2022-09-30T17:05:29.703Z,8.60
2022-09-30T17:07:57.692Z,6.85
2022-09-30T17:10:29.071Z,8.32
2022-09-30T17:13:03.336Z,10.68
2022-09-30T17:15:30.808Z,5.18
2022-09-30T17:17:57.936Z,5.32
2022-09-30T17:20:24.164Z,4.00
2022-09-30T17:22:50.766Z,10.98
2022-09-30T17:25:17.443Z,7.57
2022-09-30T17:27:46.418Z,4.35
2022-09-30T17:30:12.691Z,6.05
2022-09-30T17:32:38.929Z,3.47
2022-09-30T17:35:08.241Z,4.88
2022-09-30T17:37:34.716Z,4.88
2022-09-30T17:40:01.084Z,10.23
2022-09-30T17:42:45.855Z,5.95
2022-09-30T17:45:12.101Z,8.02
2022-09-30T17:47:39.544Z,6.53
2022-09-30T17:50:06.002Z,6.63
2022-09-30T17:52:34.170Z,9.80
2022-09-30T17:55:00.717Z,9.25
2022-09-30T17:57:26.970Z,7.03
2022-09-30T17:59:53.531Z,5.75
2022-09-30T18:02:21.094Z,7.40
2022-09-30T18:04:47.502Z,8.32
2022-09-30T18:07:13.941Z,7.90
2022-09-30T18:09:40.180Z,6.38
2022-09-30T18:12:07.357Z,6.10
2022-09-30T18:14:35.914Z,10.45
2022-09-30T18:17:02.979Z,6.00
2022-09-30T18:19:29.316Z,7.43
2022-09-30T18:21:55.531Z,8.23
2022-09-30T18:24:41.780Z,7.82
2022-09-30T18:27:08.049Z,6.22
2022-09-30T18:29:34.383Z,6.65
2022-09-30T18:32:01.015Z,6.97
2022-09-30T18:34:27.517Z,6.80
2022-09-30T18:36:53.718Z,9.75
2022-09-30T18:39:19.985Z,9.30
2022-09-30T18:41:48.487Z,5.60
2022-09-30T18:44:15.249Z,5.30
2022-09-30T18:46:42.764Z,12.07
2022-09-30T18:49:10.470Z,8.88
2022-09-30T18:51:36.775Z,6.47
2022-09-30T18:54:05.546Z,12.50
2022-09-30T18:56:32.556Z,5.97
2022-09-30T18:59:03.968Z,6.82
2022-09-30T19:01:31.380Z,7.63
2022-09-30T19:03:57.958Z,9.30
2022-09-30T19:06:24.255Z,7.70
2022-09-30T19:08:50.460Z,11.95
2022-09-30T19:11:17.527Z,11.77
2022-09-30T19:13:44.899Z,6.18
2022-09-30T19:16:11.539Z,6.32
2022-09-30T19:18:39.235Z,5.88
2022-09-30T19:21:06.411Z,4.50
2022-09-30T19:23:32.782Z,6.30
2022-09-30T19:26:01.039Z,7.28
2022-09-30T19:28:27.315Z,6.43
2022-09-30T19:30:53.599Z,5.10
2022-09-30T19:33:22.838Z,3.75
2022-09-30T19:35:52.173Z,7.32
2022-09-30T19:38:27.293Z,9.85
2022-09-30T19:40:58.843Z,6.55
2022-09-30T19:43:25.636Z,9.65
2022-09-30T19:45:58.827Z,8.93
2022-09-30T19:48:25.767Z,6.90
2022-09-30T19:50:58.595Z,8.02
2022-09-30T19:53:30.645Z,9.73
2022-09-30T19:56:05.056Z,11.95
2022-09-30T19:58:35.122Z,10.85
2022-09-30T20:01:01.874Z,11.45
2022-09-30T20:03:30.510Z,8.82
2022-09-30T20:05:57.445Z,13.18
2022-09-30T20:08:23.670Z,7.38
2022-09-30T20:10:49.930Z,7.20
2022-09-30T20:13:16.155Z,4.32
2022-09-30T20:15:51.112Z,8.68
2022-09-30T20:18:17.910Z,8.32
2022-09-30T20:20:45.620Z,6.65
2022-09-30T20:23:12.384Z,9.13
2022-09-30T20:25:38.636Z,5.95
2022-09-30T20:28:05.276Z,6.93
2022-09-30T20:30:31.973Z,5.22
2022-09-30T20:32:58.324Z,6.53
2022-09-30T20:35:25.126Z,7.60
2022-09-30T20:37:51.654Z,4.35
2022-09-30T20:40:18.197Z,9.80
2022-09-30T20:42:44.483Z,3.78
2022-09-30T20:45:10.943Z,5.32
2022-09-30T20:47:42.371Z,10.55
2022-09-30T20:50:10.461Z,3.08
2022-09-30T20:52:36.794Z,3.72
2022-09-30T20:55:03.085Z,3.63
2022-09-30T20:57:32.424Z,7.28
2022-09-30T20:59:59.704Z,4.72
2022-09-30T21:02:27.537Z,6.32
2022-09-30T21:04:55.205Z,5.15
2022-09-30T21:07:21.431Z,6.53
2022-09-30T21:09:48.122Z,5.93
2022-09-30T21:12:14.688Z,6.00
2022-09-30T21:14:40.946Z,6.13
2022-09-30T21:17:08.116Z,5.50
2022-09-30T21:19:34.607Z,4.00
2022-09-30T21:22:01.049Z,5.85
2022-09-30T21:24:27.334Z,3.40
2022-09-30T21:26:55.781Z,7.35
2022-09-30T21:29:22.686Z,4.38
2022-09-30T21:31:49.022Z,5.32
2022-09-30T21:34:15.315Z,5.10
2022-09-30T21:36:41.570Z,3.72
2022-09-30T21:39:07.806Z,5.95
2022-09-30T21:41:34.401Z,7.15
2022-09-30T21:44:01.277Z,4.13
2022-09-30T21:46:27.580Z,4.07
2022-09-30T21:49:07.151Z,5.95
2022-09-30T21:51:35.365Z,5.00
2022-09-30T21:54:02.728Z,6.60
2022-09-30T21:56:29.286Z,4.38
2022-09-30T21:58:55.987Z,8.65
2022-09-30T22:01:22.441Z,11.70
2022-09-30T22:03:48.674Z,9.10
2022-09-30T22:06:17.439Z,4.07
2022-09-30T22:08:43.679Z,7.85
2022-09-30T22:11:11.293Z,7.45
2022-09-30T22:13:40.537Z,7.90
2022-09-30T22:16:09.639Z,7.15
2022-09-30T22:18:35.986Z,8.95
2022-09-30T22:21:03.818Z,6.22
2022-09-30T22:23:30.052Z,8.02
2022-09-30T22:25:57.365Z,11.77
2022-09-30T22:28:23.925Z,9.45
2022-09-30T22:30:50.243Z,7.30
2022-09-30T22:33:34.799Z,9.20
2022-09-30T22:36:19.665Z,5.80
2022-09-30T22:38:46.021Z,4.57
2022-09-30T22:41:12.254Z,6.25
2022-09-30T22:43:39.019Z,6.80
2022-09-30T22:46:06.879Z,5.88
2022-09-30T22:48:33.232Z,9.38
2022-09-30T22:50:59.856Z,8.23
2022-09-30T22:53:26.932Z,6.75
2022-09-30T22:55:53.227Z,9.85
2022-09-30T22:58:20.145Z,8.23
2022-09-30T23:00:56.072Z,7.00
2022-09-30T23:03:22.731Z,8.52
2022-09-30T23:05:49.030Z,7.75
2022-09-30T23:08:15.349Z,5.25
2022-09-30T23:10:51.118Z,9.95
2022-09-30T23:13:19.894Z,6.05
2022-09-30T23:15:46.634Z,7.47
2022-09-30T23:18:12.987Z,7.97
2022-09-30T23:20:40.810Z,7.25
2022-09-30T23:23:07.211Z,9.23
2022-09-30T23:25:33.526Z,6.10
2022-09-30T23:27:59.864Z,9.32
2022-09-30T23:30:27.763Z,5.03
2022-09-30T23:32:53.985Z,7.57
2022-09-30T23:35:20.210Z,8.63
2022-09-30T23:37:49.751Z,4.35
2022-09-30T23:40:16.060Z,7.90
2022-09-30T23:42:42.267Z,7.65
2022-09-30T23:45:09.024Z,5.13
2022-09-30T23:47:35.284Z,9.85
2022-09-30T23:50:01.519Z,7.80
2022-09-30T23:52:27.791Z,12.10
2022-09-30T23:54:54.390Z,5.88
2022-09-30T23:57:20.671Z,6.47
2022-09-30T23:59:46.879Z,6.20
